首页
METAR-TAF:

METAR-TAF

机场 :

錫達拉皮茲, 艾奥瓦州, 美国

纬度: 41-53-04N, 经度: 091-42-38W, 海拔: 263米

当前天气观测

该预报发布于11分钟前的07:52 UTC
风速10节,风向西
温度 -14°C
湿度 78%
气压 1018 hPa
能見度: 16.1公里
天空无云

METAR: KCID 100752Z AUTO 28010KT 10SM CLR M14/M17 A3007 RMK AO2 SLP200 T11391167

时间: 02:03 (08:03 UTC)

预报

该预报发布于2小时和43分钟前的05:20 UTC
预报有效从10日的 06点(UTC)到 11日的 06点(UTC)
风速13节,风向西转西北,有时为19节阵风
能見度: 10公里
天空无云
从 10日的 1600点(UTC)
风速12节,风向西转西北
能見度: 10公里
多云层高于3500英尺
从 11日的 0000点(UTC)
风速3节,风向多变
能見度: 10公里
散云层高于12000英尺

TAF: KCID 100520Z 1006/1106 30013G19KT P6SM SKC FM101600 30012KT P6SM BKN035 FM110000 VRB03KT P6SM SCT120

超过4000个机场的气象观测和天气预报(METAR&TAF报告)。

可查询的气象台以黄色和红色小点在地图上表示。

将鼠标移到小点上方,可查看气象台名称。

然后点击查看天气观测和预报。

如需切换地图:点击带黑十字的绿色按钮放大地图;点击带横线的绿色按钮缩小地图;或者点击绿色箭头查看邻近地区的地图。


METAR-TAF: